createdAt,value
2022-11-17T00:01:30.041Z,1.05
2022-11-17T00:03:57.425Z,1.20
2022-11-17T00:06:24.653Z,1.65
2022-11-17T00:08:52.971Z,0.73
2022-11-17T00:11:20.932Z,1.52
2022-11-17T00:14:06.838Z,1.02
2022-11-17T00:16:34.041Z,1.25
2022-11-17T00:19:19.504Z,1.30
2022-11-17T00:21:46.740Z,0.73
2022-11-17T00:24:17.136Z,0.90
2022-11-17T00:29:32.132Z,0.50
2022-11-17T00:32:20.208Z,0.82
2022-11-17T00:34:50.210Z,1.15
2022-11-17T00:37:17.590Z,0.38
2022-11-17T00:39:44.838Z,0.93
2022-11-17T00:42:12.283Z,0.68
2022-11-17T00:44:39.267Z,0.50
2022-11-17T00:47:06.267Z,0.63
2022-11-17T00:49:33.439Z,0.43
2022-11-17T00:52:00.673Z,0.30
2022-11-17T00:54:30.354Z,0.40
2022-11-17T00:56:57.524Z,0.30
2022-11-17T00:59:24.622Z,0.32
2022-11-17T01:01:52.186Z,0.43
2022-11-17T01:04:19.340Z,0.40
2022-11-17T01:06:49.491Z,0.50
2022-11-17T01:09:23.762Z,0.20
2022-11-17T01:11:52.729Z,0.40
2022-11-17T01:14:26.313Z,0.25
2022-11-17T01:16:54.304Z,0.30
2022-11-17T01:19:25.426Z,0.47
2022-11-17T01:21:52.668Z,0.22
2022-11-17T01:24:19.806Z,0.40
2022-11-17T01:26:47.003Z,0.50
2022-11-17T01:29:17.110Z,0.30
2022-11-17T01:31:49.589Z,0.50
2022-11-17T01:34:18.497Z,0.60
2022-11-17T01:37:04.278Z,0.30
2022-11-17T01:39:32.095Z,0.50
2022-11-17T01:42:13.264Z,0.50
2022-11-17T01:44:57.215Z,0.70
2022-11-17T01:47:27.896Z,0.30
2022-11-17T01:50:01.428Z,0.30
2022-11-17T01:52:30.753Z,0.30
2022-11-17T01:55:00.215Z,0.30
2022-11-17T01:57:37.964Z,0.30
2022-11-17T02:00:09.162Z,0.22
2022-11-17T02:02:39.173Z,0.13
2022-11-17T02:05:25.106Z,0.85
2022-11-17T02:07:54.843Z,0.40
2022-11-17T02:10:22.456Z,0.30
2022-11-17T02:12:53.309Z,0.40
2022-11-17T02:15:23.137Z,0.70
2022-11-17T02:17:54.329Z,0.50
2022-11-17T02:20:41.413Z,0.45
2022-11-17T02:23:20.457Z,0.75
2022-11-17T02:26:04.134Z,0.40
2022-11-17T02:28:54.468Z,0.32
2022-11-17T02:31:37.231Z,0.20
2022-11-17T02:34:16.527Z,0.28
2022-11-17T02:36:47.872Z,0.28
2022-11-17T02:39:22.917Z,0.30
2022-11-17T02:41:52.965Z,0.35
2022-11-17T02:44:26.135Z,0.13
2022-11-17T02:46:59.770Z,0.35
2022-11-17T02:49:34.281Z,0.10
2022-11-17T02:52:05.581Z,0.60
2022-11-17T02:54:36.173Z,0.30
2022-11-17T02:57:05.384Z,0.45
2022-11-17T02:59:42.959Z,0.40
2022-11-17T03:02:37.233Z,0.38
2022-11-17T03:05:30.157Z,0.50
2022-11-17T03:08:09.716Z,0.60
2022-11-17T03:10:56.552Z,0.52
2022-11-17T03:13:45.455Z,0.32
2022-11-17T03:16:36.895Z,0.20
2022-11-17T03:19:17.804Z,0.50
2022-11-17T03:21:51.148Z,0.47
2022-11-17T03:24:29.687Z,0.22
2022-11-17T03:27:28.046Z,0.20
2022-11-17T03:30:00.670Z,0.30
2022-11-17T03:32:36.061Z,0.40
2022-11-17T03:35:18.187Z,0.30
2022-11-17T03:37:51.620Z,0.20
2022-11-17T03:40:23.071Z,0.40
2022-11-17T03:42:55.262Z,0.43
2022-11-17T03:45:28.897Z,0.38
2022-11-17T03:48:16.994Z,0.20
2022-11-17T03:51:00.200Z,0.47
2022-11-17T03:53:27.604Z,0.10
2022-11-17T03:56:10.066Z,0.20
2022-11-17T03:58:45.838Z,0.38
2022-11-17T04:01:16.528Z,0.30
2022-11-17T04:03:43.773Z,0.47
2022-11-17T04:06:10.853Z,0.38
2022-11-17T04:08:38.670Z,0.28
2022-11-17T04:11:27.607Z,0.50
2022-11-17T04:14:13.170Z,0.40
2022-11-17T04:16:43.648Z,0.32
2022-11-17T04:19:10.599Z,0.20
2022-11-17T04:21:37.903Z,0.32
2022-11-17T04:24:05.388Z,0.30
2022-11-17T04:26:51.254Z,0.30
2022-11-17T04:29:18.868Z,0.10
2022-11-17T04:31:46.086Z,0.20
2022-11-17T04:34:13.343Z,0.30
2022-11-17T04:36:45.289Z,0.40
2022-11-17T04:39:14.318Z,0.35
2022-11-17T04:42:04.865Z,0.40
2022-11-17T04:44:32.716Z,0.30
2022-11-17T04:47:09.054Z,0.30
2022-11-17T04:49:36.413Z,0.10
2022-11-17T04:52:06.083Z,0.20
2022-11-17T04:54:33.215Z,0.28
2022-11-17T04:57:00.607Z,0.20
2022-11-17T04:59:27.855Z,0.17
2022-11-17T05:01:55.048Z,0.32
2022-11-17T05:04:40.959Z,0.32
2022-11-17T05:07:08.963Z,0.28
2022-11-17T05:09:36.421Z,0.45
2022-11-17T05:12:26.120Z,0.28
2022-11-17T05:14:53.288Z,0.43
2022-11-17T05:17:22.754Z,0.30
2022-11-17T05:19:50.126Z,0.40
2022-11-17T05:22:40.156Z,0.50
2022-11-17T05:25:07.908Z,0.10
2022-11-17T05:27:36.131Z,0.20
2022-11-17T05:30:08.282Z,0.43
2022-11-17T05:32:35.719Z,0.20
2022-11-17T05:35:03.908Z,0.10
2022-11-17T05:37:34.396Z,0.65
2022-11-17T05:40:02.147Z,0.22
2022-11-17T05:45:00.012Z,0.40
2022-11-17T05:47:27.405Z,0.40
2022-11-17T05:49:54.582Z,0.17
2022-11-17T05:52:22.186Z,0.60
2022-11-17T05:54:52.109Z,0.20
2022-11-17T05:57:28.876Z,0.38
2022-11-17T06:00:01.782Z,0.20
2022-11-17T06:02:36.765Z,0.43
2022-11-17T06:05:12.375Z,0.57
2022-11-17T06:07:43.630Z,0.20
2022-11-17T06:10:17.049Z,0.40
2022-11-17T06:12:44.621Z,0.25
2022-11-17T06:15:11.880Z,0.20
2022-11-17T06:17:50.772Z,0.20
2022-11-17T06:20:32.513Z,0.47
2022-11-17T06:23:03.679Z,0.20
2022-11-17T06:25:33.227Z,0.20
2022-11-17T06:28:07.146Z,0.40
2022-11-17T06:30:36.595Z,0.40
2022-11-17T06:33:05.983Z,0.13
2022-11-17T06:35:35.510Z,0.30
2022-11-17T06:38:03.433Z,0.20
2022-11-17T06:40:30.556Z,0.32
2022-11-17T06:43:12.563Z,0.45
2022-11-17T06:45:45.127Z,0.32
2022-11-17T06:48:14.324Z,0.10
2022-11-17T06:50:42.629Z,0.20
2022-11-17T06:53:11.875Z,0.25
2022-11-17T06:55:40.325Z,0.30
2022-11-17T06:58:11.699Z,0.40
2022-11-17T07:00:39.633Z,0.30
2022-11-17T07:03:13.400Z,0.10
2022-11-17T07:05:49.330Z,0.20
2022-11-17T07:08:19.179Z,0.32
2022-11-17T07:11:06.490Z,0.30
2022-11-17T07:13:37.268Z,0.25
2022-11-17T07:16:21.682Z,0.20
2022-11-17T07:18:52.969Z,0.10
2022-11-17T07:21:31.094Z,0.20
2022-11-17T07:24:00.438Z,0.50
2022-11-17T07:26:32.591Z,0.30
2022-11-17T07:29:04.018Z,0.28
2022-11-17T07:31:42.195Z,0.20
2022-11-17T07:34:15.950Z,0.20
2022-11-17T07:36:47.008Z,0.55
2022-11-17T07:39:21.005Z,0.20
2022-11-17T07:41:50.036Z,0.30
2022-11-17T07:44:17.859Z,0.22
2022-11-17T07:46:48.824Z,0.52
2022-11-17T07:49:17.799Z,0.20
2022-11-17T07:51:45.827Z,0.10
2022-11-17T07:54:15.449Z,0.13
2022-11-17T07:56:46.444Z,0.40
2022-11-17T07:59:19.989Z,0.30
2022-11-17T08:01:49.353Z,0.20
2022-11-17T08:04:19.953Z,0.17
2022-11-17T08:06:53.041Z,0.20
2022-11-17T08:09:24.055Z,0.40
2022-11-17T08:11:55.583Z,0.28
2022-11-17T08:14:32.814Z,0.45
2022-11-17T08:17:17.475Z,0.40
2022-11-17T08:19:45.672Z,0.13
2022-11-17T08:22:26.591Z,0.38
2022-11-17T08:24:57.926Z,0.20
2022-11-17T08:27:35.273Z,0.22
2022-11-17T08:30:04.082Z,0.20
2022-11-17T08:32:52.288Z,0.05
2022-11-17T08:35:37.865Z,0.40
2022-11-17T08:38:06.395Z,0.73
2022-11-17T08:40:55.360Z,0.10
2022-11-17T08:43:30.352Z,0.20
2022-11-17T08:46:06.464Z,0.17
2022-11-17T08:48:41.594Z,0.20
2022-11-17T08:51:12.611Z,0.20
2022-11-17T08:53:42.381Z,0.30
2022-11-17T08:56:28.180Z,0.20
2022-11-17T09:01:41.032Z,0.30
2022-11-17T09:04:09.888Z,0.28
2022-11-17T09:06:43.818Z,0.75
2022-11-17T09:09:14.182Z,0.30
2022-11-17T09:11:51.317Z,0.10
2022-11-17T09:14:20.236Z,0.08
2022-11-17T09:16:53.803Z,0.38
2022-11-17T09:19:22.668Z,0.30
2022-11-17T09:21:55.110Z,0.47
2022-11-17T09:24:24.577Z,0.30
2022-11-17T09:27:12.408Z,0.20
2022-11-17T09:29:44.757Z,0.30
2022-11-17T09:32:33.174Z,0.20
2022-11-17T09:35:02.199Z,0.15
2022-11-17T09:37:31.186Z,0.17
2022-11-17T09:40:00.620Z,0.10
2022-11-17T09:42:30.658Z,0.20
2022-11-17T09:45:12.247Z,0.25
2022-11-17T09:48:39.054Z,0.32
2022-11-17T09:51:03.719Z,0.20
2022-11-17T09:53:49.455Z,0.00
2022-11-17T09:56:25.204Z,0.10
2022-11-17T09:59:03.113Z,0.20
2022-11-17T10:01:41.298Z,0.20
2022-11-17T10:04:14.584Z,0.30
2022-11-17T10:06:52.759Z,0.20
2022-11-17T10:09:50.956Z,0.15
2022-11-17T10:12:35.919Z,0.03
2022-11-17T10:15:38.691Z,0.25
2022-11-17T10:18:15.117Z,0.05
2022-11-17T10:20:56.917Z,0.10
2022-11-17T10:23:46.144Z,0.10
2022-11-17T10:26:27.686Z,0.32
2022-11-17T10:29:12.300Z,0.43
2022-11-17T10:31:47.283Z,0.10
2022-11-17T10:34:40.617Z,0.10
2022-11-17T10:37:22.208Z,0.30
2022-11-17T10:39:50.045Z,0.20
2022-11-17T10:42:24.638Z,0.10
2022-11-17T10:44:58.983Z,0.20
2022-11-17T10:47:36.128Z,0.15
2022-11-17T10:50:29.833Z,0.20
2022-11-17T10:53:25.881Z,0.20
2022-11-17T10:56:26.783Z,0.20
2022-11-17T10:59:13.279Z,0.10
2022-11-17T11:01:53.682Z,0.20
2022-11-17T11:04:31.936Z,0.57
2022-11-17T11:07:22.157Z,0.30
2022-11-17T11:10:19.378Z,0.20
2022-11-17T11:13:26.428Z,0.50
2022-11-17T11:15:57.904Z,0.28
2022-11-17T11:18:32.575Z,0.10
2022-11-17T11:21:46.105Z,0.40
2022-11-17T11:24:33.614Z,0.30
2022-11-17T11:27:37.878Z,0.10
2022-11-17T11:30:25.367Z,0.25
2022-11-17T11:33:22.378Z,0.90
2022-11-17T11:36:11.216Z,0.22
2022-11-17T11:39:00.304Z,0.30
2022-11-17T11:41:44.696Z,0.30
2022-11-17T11:44:36.286Z,0.20
2022-11-17T11:47:47.325Z,0.38
2022-11-17T11:50:41.481Z,0.30
2022-11-17T11:53:41.855Z,0.35
2022-11-17T11:56:19.788Z,0.35
2022-11-17T11:59:00.115Z,0.50
2022-11-17T12:01:45.942Z,0.60
2022-11-17T12:04:23.904Z,0.22
2022-11-17T12:07:22.084Z,0.50
2022-11-17T12:10:18.110Z,0.47
2022-11-17T12:12:50.178Z,0.30
2022-11-17T12:15:35.680Z,0.32
2022-11-17T12:18:27.798Z,0.35
2022-11-17T12:21:32.305Z,0.40
2022-11-17T12:26:44.594Z,0.20
2022-11-17T12:29:31.941Z,0.30
2022-11-17T12:32:12.953Z,0.20
2022-11-17T12:35:19.710Z,0.32
2022-11-17T12:37:50.962Z,0.40
2022-11-17T12:40:41.936Z,0.30
2022-11-17T12:43:33.102Z,0.50
2022-11-17T12:46:33.779Z,0.30
2022-11-17T12:49:16.856Z,0.40
2022-11-17T12:52:05.245Z,0.15
2022-11-17T12:54:56.817Z,0.17
2022-11-17T12:57:32.790Z,0.38
2022-11-17T13:00:13.213Z,0.30
2022-11-17T13:03:00.499Z,0.10
2022-11-17T13:05:37.228Z,0.50
2022-11-17T13:08:28.731Z,0.35
2022-11-17T13:11:15.158Z,0.10
2022-11-17T13:13:46.920Z,0.30
2022-11-17T13:16:21.708Z,0.38
2022-11-17T13:18:59.596Z,0.25
2022-11-17T13:21:41.952Z,0.30
2022-11-17T13:24:28.655Z,0.43
2022-11-17T13:27:10.343Z,0.63
2022-11-17T13:29:39.512Z,0.30
2022-11-17T13:32:28.822Z,0.30
2022-11-17T13:35:00.713Z,0.17
2022-11-17T13:37:37.200Z,0.50
2022-11-17T13:40:24.346Z,0.35
2022-11-17T13:42:52.647Z,0.20
2022-11-17T13:45:36.471Z,0.57
2022-11-17T13:48:40.336Z,0.73
2022-11-17T13:54:15.579Z,0.10
2022-11-17T13:59:25.320Z,0.20
2022-11-17T14:02:30.115Z,0.40
2022-11-17T14:05:13.827Z,0.30
2022-11-17T14:07:46.216Z,0.35
2022-11-17T14:10:33.543Z,0.17
2022-11-17T14:13:01.567Z,0.28
2022-11-17T14:15:42.182Z,0.43
2022-11-17T14:18:29.959Z,0.30
2022-11-17T14:24:12.385Z,0.30
2022-11-17T14:26:50.147Z,0.93
2022-11-17T14:29:19.624Z,0.10
2022-11-17T14:31:53.831Z,0.30
2022-11-17T14:34:24.743Z,0.68
2022-11-17T14:36:56.845Z,0.30
2022-11-17T14:39:27.630Z,0.52
2022-11-17T14:41:58.243Z,0.30
2022-11-17T14:44:26.423Z,0.30
2022-11-17T14:46:54.338Z,0.57
2022-11-17T14:49:22.246Z,0.30
2022-11-17T14:51:53.323Z,0.10
2022-11-17T14:54:24.143Z,0.40
2022-11-17T14:56:56.857Z,0.30
2022-11-17T14:59:27.847Z,0.20
2022-11-17T15:01:56.072Z,0.25
2022-11-17T15:04:49.492Z,0.13
2022-11-17T15:07:17.889Z,0.30
2022-11-17T15:09:48.487Z,0.40
2022-11-17T15:12:20.823Z,0.10
2022-11-17T15:14:48.968Z,0.30
2022-11-17T15:17:20.665Z,0.17
2022-11-17T15:19:55.407Z,0.45
2022-11-17T15:22:23.686Z,0.13
2022-11-17T15:24:54.725Z,0.30
2022-11-17T15:27:24.932Z,0.15
2022-11-17T15:29:53.283Z,0.20
2022-11-17T15:32:32.709Z,0.13
2022-11-17T15:35:04.480Z,0.52
2022-11-17T15:37:38.537Z,0.30
2022-11-17T15:40:12.946Z,0.20
2022-11-17T15:42:42.892Z,0.38
2022-11-17T15:45:13.702Z,0.50
2022-11-17T15:47:47.045Z,0.50
2022-11-17T15:50:24.041Z,0.32
2022-11-17T15:53:04.105Z,0.20
2022-11-17T15:55:38.778Z,0.30
2022-11-17T15:58:09.176Z,0.28
2022-11-17T16:00:37.011Z,0.40
2022-11-17T16:03:06.638Z,0.30
2022-11-17T16:05:37.428Z,0.35
2022-11-17T16:08:08.339Z,0.30
2022-11-17T16:10:40.006Z,0.50
2022-11-17T16:13:07.904Z,0.35
2022-11-17T16:15:36.432Z,0.40
2022-11-17T16:18:07.851Z,0.55
2022-11-17T16:20:41.843Z,0.73
2022-11-17T16:23:10.061Z,0.80
2022-11-17T16:25:44.450Z,0.45
2022-11-17T16:28:13.509Z,0.40
2022-11-17T16:30:48.179Z,0.82
2022-11-17T16:33:18.192Z,0.77
2022-11-17T16:35:51.225Z,0.43
2022-11-17T16:38:19.672Z,0.25
2022-11-17T16:40:47.282Z,0.50
2022-11-17T16:43:17.257Z,0.38
2022-11-17T16:45:56.302Z,0.30
2022-11-17T16:48:24.398Z,0.70
2022-11-17T16:50:58.075Z,0.13
2022-11-17T16:53:26.301Z,0.50
2022-11-17T16:56:05.565Z,0.22
2022-11-17T16:58:33.301Z,0.40
2022-11-17T17:01:15.213Z,0.43
2022-11-17T17:03:49.483Z,1.05
2022-11-17T17:06:19.341Z,0.40
2022-11-17T17:08:47.218Z,0.28
2022-11-17T17:11:31.003Z,0.43
2022-11-17T17:14:04.278Z,0.50
2022-11-17T17:16:34.673Z,4.30
2022-11-17T17:19:05.121Z,6.60
2022-11-17T17:21:34.416Z,7.45
2022-11-17T17:24:05.139Z,1.92
2022-11-17T17:26:34.604Z,13.38
2022-11-17T17:29:04.531Z,3.13
2022-11-17T17:31:37.710Z,1.27
2022-11-17T17:34:09.095Z,3.28
2022-11-17T17:36:38.675Z,3.90
2022-11-17T17:39:07.076Z,5.95
2022-11-17T17:41:41.423Z,8.65
2022-11-17T17:44:16.552Z,5.82
2022-11-17T17:46:47.664Z,1.48
2022-11-17T17:49:16.048Z,1.58
2022-11-17T17:51:44.731Z,6.70
2022-11-17T17:54:20.860Z,3.83
2022-11-17T17:56:49.176Z,2.17
2022-11-17T17:59:17.042Z,4.50
2022-11-17T18:01:47.420Z,3.97
2022-11-17T18:04:16.520Z,2.03
2022-11-17T18:06:48.096Z,1.05
2022-11-17T18:09:19.112Z,4.28
2022-11-17T18:11:49.865Z,1.20
2022-11-17T18:14:26.686Z,1.02
2022-11-17T18:16:54.230Z,1.23
2022-11-17T18:19:24.886Z,3.15
2022-11-17T18:22:07.823Z,0.80
2022-11-17T18:24:37.646Z,0.60
2022-11-17T18:27:07.805Z,0.28
2022-11-17T18:32:04.322Z,0.60
2022-11-17T18:34:31.366Z,0.95
2022-11-17T18:36:58.411Z,0.68
2022-11-17T18:39:27.421Z,0.60
2022-11-17T18:41:54.863Z,0.98
2022-11-17T18:44:22.092Z,0.30
2022-11-17T18:46:49.218Z,0.55
2022-11-17T18:49:19.423Z,0.65
2022-11-17T18:51:47.018Z,1.20
2022-11-17T18:54:14.174Z,0.82
2022-11-17T18:56:44.721Z,0.52
2022-11-17T18:59:12.250Z,0.93
2022-11-17T19:01:41.676Z,2.30
2022-11-17T19:04:15.002Z,1.65
2022-11-17T19:06:42.601Z,2.08
2022-11-17T19:09:10.971Z,1.17
2022-11-17T19:11:40.875Z,0.70
2022-11-17T19:14:08.170Z,0.70
2022-11-17T19:16:44.462Z,2.30
2022-11-17T19:19:13.666Z,0.43
2022-11-17T19:21:41.851Z,0.47
2022-11-17T19:24:12.429Z,1.08
2022-11-17T19:26:39.971Z,0.52
2022-11-17T19:29:16.251Z,1.00
2022-11-17T19:31:44.317Z,0.50
2022-11-17T19:34:11.609Z,0.60
2022-11-17T19:36:38.568Z,0.55
2022-11-17T19:39:05.870Z,0.40
2022-11-17T19:41:38.570Z,0.57
2022-11-17T19:44:07.481Z,0.20
2022-11-17T19:46:36.521Z,0.63
2022-11-17T19:49:08.037Z,0.73
2022-11-17T19:51:39.116Z,0.28
2022-11-17T19:54:08.432Z,0.40
2022-11-17T19:56:35.775Z,0.63
2022-11-17T19:59:03.843Z,0.50
2022-11-17T20:01:33.114Z,0.75
2022-11-17T20:04:01.881Z,0.80
2022-11-17T20:06:34.957Z,0.30
2022-11-17T20:09:10.090Z,0.10
2022-11-17T20:11:37.568Z,0.35
2022-11-17T20:14:04.979Z,0.40
2022-11-17T20:16:35.021Z,0.20
2022-11-17T20:19:04.840Z,0.30
2022-11-17T20:21:32.133Z,0.68
2022-11-17T20:24:00.384Z,0.40
2022-11-17T20:26:30.297Z,0.60
2022-11-17T20:28:58.987Z,1.10
2022-11-17T20:31:29.171Z,0.70
2022-11-17T20:33:59.567Z,0.50
2022-11-17T20:36:28.712Z,0.45
2022-11-17T20:38:57.933Z,0.30
2022-11-17T20:41:26.483Z,0.40
2022-11-17T20:43:55.548Z,0.60
2022-11-17T20:46:33.930Z,0.52
2022-11-17T20:49:01.087Z,0.15
2022-11-17T20:51:28.111Z,0.63
2022-11-17T20:53:55.184Z,0.55
2022-11-17T20:56:25.091Z,0.40
2022-11-17T20:58:52.533Z,0.20
2022-11-17T21:01:24.521Z,0.40
2022-11-17T21:03:53.405Z,0.50
2022-11-17T21:06:23.273Z,0.93
2022-11-17T21:08:51.330Z,0.60
2022-11-17T21:11:39.688Z,0.80
2022-11-17T21:14:09.861Z,0.70
2022-11-17T21:16:39.129Z,0.17
2022-11-17T21:19:06.876Z,0.32
2022-11-17T21:21:34.397Z,0.30
2022-11-17T21:24:01.649Z,0.20
2022-11-17T21:26:30.162Z,0.40
2022-11-17T21:29:03.230Z,0.38
2022-11-17T21:31:36.543Z,0.63
2022-11-17T21:34:06.473Z,0.45
2022-11-17T21:36:35.051Z,0.32
2022-11-17T21:39:02.777Z,0.22
2022-11-17T21:41:34.757Z,0.40
2022-11-17T21:44:05.258Z,0.52
2022-11-17T21:46:37.138Z,0.10
2022-11-17T21:49:04.316Z,0.38
2022-11-17T21:51:34.239Z,0.45
2022-11-17T21:54:04.424Z,0.47
2022-11-17T21:56:32.347Z,0.50
2022-11-17T21:59:06.279Z,0.73
2022-11-17T22:01:34.937Z,0.70
2022-11-17T22:04:04.974Z,0.82
2022-11-17T22:06:35.058Z,0.43
2022-11-17T22:09:02.419Z,0.60
2022-11-17T22:11:36.388Z,0.52
2022-11-17T22:14:13.269Z,0.43
2022-11-17T22:16:48.000Z,0.43
2022-11-17T22:19:16.968Z,0.50
2022-11-17T22:21:48.090Z,0.50
2022-11-17T22:24:15.088Z,0.50
2022-11-17T22:26:43.710Z,0.20
2022-11-17T22:29:15.895Z,0.50
2022-11-17T22:31:44.242Z,0.17
2022-11-17T22:34:12.267Z,0.32
2022-11-17T22:36:42.605Z,0.38
2022-11-17T22:41:36.957Z,0.55
2022-11-17T22:44:04.983Z,0.80
2022-11-17T22:46:36.137Z,0.38
2022-11-17T22:49:05.945Z,0.30
2022-11-17T22:51:51.878Z,0.40
2022-11-17T22:54:19.609Z,0.47
2022-11-17T22:56:46.804Z,0.28
2022-11-17T22:59:14.177Z,0.38
2022-11-17T23:01:46.188Z,0.30
2022-11-17T23:04:15.618Z,0.20
2022-11-17T23:06:43.737Z,0.30
2022-11-17T23:09:11.899Z,0.50
2022-11-17T23:11:43.890Z,0.20
2022-11-17T23:14:12.990Z,0.50
2022-11-17T23:16:41.166Z,0.35
2022-11-17T23:19:12.674Z,0.60
2022-11-17T23:21:43.079Z,0.80
2022-11-17T23:24:12.914Z,0.10
2022-11-17T23:26:44.175Z,0.85
2022-11-17T23:29:12.445Z,0.40
2022-11-17T23:31:39.657Z,0.50
2022-11-17T23:34:10.871Z,0.20
2022-11-17T23:36:39.255Z,0.30
2022-11-17T23:39:06.640Z,0.65
2022-11-17T23:41:36.173Z,0.35
2022-11-17T23:44:03.941Z,0.77
2022-11-17T23:46:31.533Z,0.47
2022-11-17T23:48:58.792Z,0.47
2022-11-17T23:51:27.264Z,0.70
2022-11-17T23:54:04.036Z,0.80
2022-11-17T23:56:34.777Z,0.45
2022-11-17T23:59:03.150Z,0.88
